sensor_id;sensor_type;location;lat;lon;timestamp;P1;durP1;ratioP1;P2;durP2;ratioP2
6149;SDS011;3106;42.670;23.318;2022-09-09T00:00:45;26.73;;;14.20;;
6149;SDS011;3106;42.670;23.318;2022-09-09T00:03:16;26.63;;;13.93;;
6149;SDS011;3106;42.670;23.318;2022-09-09T00:05:48;21.30;;;14.40;;
6149;SDS011;3106;42.670;23.318;2022-09-09T00:08:24;18.97;;;13.07;;
6149;SDS011;3106;42.670;23.318;2022-09-09T00:11:06;16.30;;;12.03;;
6149;SDS011;3106;42.670;23.318;2022-09-09T00:13:39;20.27;;;12.80;;
6149;SDS011;3106;42.670;23.318;2022-09-09T00:16:14;17.60;;;11.90;;
6149;SDS011;3106;42.670;23.318;2022-09-09T00:18:48;23.10;;;13.30;;
6149;SDS011;3106;42.670;23.318;2022-09-09T00:21:24;18.30;;;14.17;;
6149;SDS011;3106;42.670;23.318;2022-09-09T00:23:57;22.17;;;12.93;;
6149;SDS011;3106;42.670;23.318;2022-09-09T00:26:29;18.23;;;12.73;;
6149;SDS011;3106;42.670;23.318;2022-09-09T00:29:03;17.93;;;13.37;;
6149;SDS011;3106;42.670;23.318;2022-09-09T00:31:36;19.50;;;12.90;;
6149;SDS011;3106;42.670;23.318;2022-09-09T00:34:05;21.43;;;12.87;;
6149;SDS011;3106;42.670;23.318;2022-09-09T00:36:37;20.30;;;13.90;;
6149;SDS011;3106;42.670;23.318;2022-09-09T00:39:05;22.20;;;12.90;;
6149;SDS011;3106;42.670;23.318;2022-09-09T00:41:55;25.60;;;14.00;;
6149;SDS011;3106;42.670;23.318;2022-09-09T00:44:34;27.40;;;13.30;;
6149;SDS011;3106;42.670;23.318;2022-09-09T00:47:09;17.40;;;12.53;;
6149;SDS011;3106;42.670;23.318;2022-09-09T00:49:46;21.40;;;12.83;;
6149;SDS011;3106;42.670;23.318;2022-09-09T00:52:26;21.73;;;13.50;;
6149;SDS011;3106;42.670;23.318;2022-09-09T00:55:03;22.40;;;12.33;;
6149;SDS011;3106;42.670;23.318;2022-09-09T00:57:39;17.70;;;12.40;;
6149;SDS011;3106;42.670;23.318;2022-09-09T01:00:17;21.00;;;13.23;;
6149;SDS011;3106;42.670;23.318;2022-09-09T01:02:49;19.97;;;13.03;;
6149;SDS011;3106;42.670;23.318;2022-09-09T01:05:25;20.63;;;13.20;;
6149;SDS011;3106;42.670;23.318;2022-09-09T01:08:01;17.20;;;12.57;;
6149;SDS011;3106;42.670;23.318;2022-09-09T01:10:34;25.10;;;13.67;;
6149;SDS011;3106;42.670;23.318;2022-09-09T01:13:11;22.20;;;14.03;;
6149;SDS011;3106;42.670;23.318;2022-09-09T01:15:43;20.50;;;13.20;;
6149;SDS011;3106;42.670;23.318;2022-09-09T01:18:13;23.80;;;13.30;;
6149;SDS011;3106;42.670;23.318;2022-09-09T01:20:46;24.60;;;13.80;;
6149;SDS011;3106;42.670;23.318;2022-09-09T01:23:35;25.13;;;13.37;;
6149;SDS011;3106;42.670;23.318;2022-09-09T01:26:19;18.03;;;13.53;;
6149;SDS011;3106;42.670;23.318;2022-09-09T01:28:51;20.37;;;13.23;;
6149;SDS011;3106;42.670;23.318;2022-09-09T01:31:20;17.10;;;13.40;;
6149;SDS011;3106;42.670;23.318;2022-09-09T01:33:50;25.53;;;14.10;;
6149;SDS011;3106;42.670;23.318;2022-09-09T01:36:22;26.93;;;15.50;;
6149;SDS011;3106;42.670;23.318;2022-09-09T01:38:55;22.37;;;15.33;;
6149;SDS011;3106;42.670;23.318;2022-09-09T01:41:23;29.27;;;15.00;;
6149;SDS011;3106;42.670;23.318;2022-09-09T01:43:50;21.50;;;14.40;;
6149;SDS011;3106;42.670;23.318;2022-09-09T01:46:20;23.20;;;14.90;;
6149;SDS011;3106;42.670;23.318;2022-09-09T01:48:48;19.57;;;13.70;;
6149;SDS011;3106;42.670;23.318;2022-09-09T01:51:16;28.50;;;16.37;;
6149;SDS011;3106;42.670;23.318;2022-09-09T01:53:43;25.73;;;15.03;;
6149;SDS011;3106;42.670;23.318;2022-09-09T01:56:15;23.60;;;14.57;;
6149;SDS011;3106;42.670;23.318;2022-09-09T01:58:55;23.63;;;14.30;;
6149;SDS011;3106;42.670;23.318;2022-09-09T02:01:36;19.87;;;14.33;;
6149;SDS011;3106;42.670;23.318;2022-09-09T02:04:21;34.30;;;15.27;;
6149;SDS011;3106;42.670;23.318;2022-09-09T02:06:58;24.67;;;14.50;;
6149;SDS011;3106;42.670;23.318;2022-09-09T02:09:26;27.27;;;15.00;;
6149;SDS011;3106;42.670;23.318;2022-09-09T02:11:57;22.73;;;13.87;;
6149;SDS011;3106;42.670;23.318;2022-09-09T02:14:34;21.70;;;14.77;;
6149;SDS011;3106;42.670;23.318;2022-09-09T02:17:07;20.63;;;15.50;;
6149;SDS011;3106;42.670;23.318;2022-09-09T02:19:37;19.13;;;13.63;;
6149;SDS011;3106;42.670;23.318;2022-09-09T02:22:08;20.50;;;13.60;;
6149;SDS011;3106;42.670;23.318;2022-09-09T02:24:37;23.87;;;13.97;;
6149;SDS011;3106;42.670;23.318;2022-09-09T02:27:06;34.60;;;14.07;;
6149;SDS011;3106;42.670;23.318;2022-09-09T02:29:37;23.83;;;15.90;;
6149;SDS011;3106;42.670;23.318;2022-09-09T02:32:07;18.53;;;14.20;;
6149;SDS011;3106;42.670;23.318;2022-09-09T02:34:38;27.13;;;14.97;;
6149;SDS011;3106;42.670;23.318;2022-09-09T02:37:08;22.80;;;14.60;;
6149;SDS011;3106;42.670;23.318;2022-09-09T02:39:36;20.00;;;13.90;;
6149;SDS011;3106;42.670;23.318;2022-09-09T02:42:04;24.93;;;14.70;;
6149;SDS011;3106;42.670;23.318;2022-09-09T02:44:32;22.53;;;15.00;;
6149;SDS011;3106;42.670;23.318;2022-09-09T02:47:09;21.93;;;14.70;;
6149;SDS011;3106;42.670;23.318;2022-09-09T02:49:51;20.90;;;15.10;;
6149;SDS011;3106;42.670;23.318;2022-09-09T02:52:26;21.27;;;15.90;;
6149;SDS011;3106;42.670;23.318;2022-09-09T02:55:00;26.70;;;15.73;;
6149;SDS011;3106;42.670;23.318;2022-09-09T02:57:32;30.40;;;16.27;;
6149;SDS011;3106;42.670;23.318;2022-09-09T03:00:00;27.03;;;15.37;;
6149;SDS011;3106;42.670;23.318;2022-09-09T03:02:29;28.20;;;16.43;;
6149;SDS011;3106;42.670;23.318;2022-09-09T03:04:56;27.67;;;16.00;;
6149;SDS011;3106;42.670;23.318;2022-09-09T03:07:23;25.20;;;16.40;;
6149;SDS011;3106;42.670;23.318;2022-09-09T03:09:50;29.83;;;15.90;;
6149;SDS011;3106;42.670;23.318;2022-09-09T03:12:19;28.60;;;16.13;;
6149;SDS011;3106;42.670;23.318;2022-09-09T03:14:46;22.40;;;16.13;;
6149;SDS011;3106;42.670;23.318;2022-09-09T03:17:13;20.93;;;14.90;;
6149;SDS011;3106;42.670;23.318;2022-09-09T03:19:42;24.50;;;15.87;;
6149;SDS011;3106;42.670;23.318;2022-09-09T03:22:09;25.53;;;15.97;;
6149;SDS011;3106;42.670;23.318;2022-09-09T03:24:36;25.07;;;15.93;;
6149;SDS011;3106;42.670;23.318;2022-09-09T03:27:03;23.60;;;15.10;;
6149;SDS011;3106;42.670;23.318;2022-09-09T03:29:31;25.17;;;15.73;;
6149;SDS011;3106;42.670;23.318;2022-09-09T03:31:59;19.70;;;15.40;;
6149;SDS011;3106;42.670;23.318;2022-09-09T03:34:26;31.63;;;16.80;;
6149;SDS011;3106;42.670;23.318;2022-09-09T03:36:54;24.07;;;15.63;;
6149;SDS011;3106;42.670;23.318;2022-09-09T03:39:21;21.00;;;14.40;;
6149;SDS011;3106;42.670;23.318;2022-09-09T03:41:48;24.40;;;15.13;;
6149;SDS011;3106;42.670;23.318;2022-09-09T03:44:14;24.40;;;15.77;;
6149;SDS011;3106;42.670;23.318;2022-09-09T03:46:41;22.57;;;15.00;;
6149;SDS011;3106;42.670;23.318;2022-09-09T03:49:08;23.43;;;15.53;;
6149;SDS011;3106;42.670;23.318;2022-09-09T03:51:35;25.47;;;15.10;;
6149;SDS011;3106;42.670;23.318;2022-09-09T03:54:04;26.63;;;15.80;;
6149;SDS011;3106;42.670;23.318;2022-09-09T03:56:33;25.00;;;16.00;;
6149;SDS011;3106;42.670;23.318;2022-09-09T03:59:00;23.10;;;15.30;;
6149;SDS011;3106;42.670;23.318;2022-09-09T04:01:27;24.10;;;15.40;;
6149;SDS011;3106;42.670;23.318;2022-09-09T04:03:54;20.77;;;14.37;;
6149;SDS011;3106;42.670;23.318;2022-09-09T04:06:23;24.63;;;16.17;;
6149;SDS011;3106;42.670;23.318;2022-09-09T04:08:51;29.63;;;16.23;;
6149;SDS011;3106;42.670;23.318;2022-09-09T04:11:19;27.93;;;15.97;;
6149;SDS011;3106;42.670;23.318;2022-09-09T04:13:47;25.90;;;15.50;;
6149;SDS011;3106;42.670;23.318;2022-09-09T04:16:14;23.77;;;15.83;;
6149;SDS011;3106;42.670;23.318;2022-09-09T04:18:42;23.23;;;14.67;;
6149;SDS011;3106;42.670;23.318;2022-09-09T04:21:09;27.07;;;15.47;;
6149;SDS011;3106;42.670;23.318;2022-09-09T04:23:37;30.67;;;15.40;;
6149;SDS011;3106;42.670;23.318;2022-09-09T04:26:05;23.27;;;15.30;;
6149;SDS011;3106;42.670;23.318;2022-09-09T04:28:33;25.43;;;15.43;;
6149;SDS011;3106;42.670;23.318;2022-09-09T04:31:05;43.00;;;24.93;;
6149;SDS011;3106;42.670;23.318;2022-09-09T04:33:34;25.20;;;16.40;;
6149;SDS011;3106;42.670;23.318;2022-09-09T04:36:01;35.73;;;16.07;;
6149;SDS011;3106;42.670;23.318;2022-09-09T04:38:30;29.87;;;16.10;;
6149;SDS011;3106;42.670;23.318;2022-09-09T04:40:57;24.03;;;14.90;;
6149;SDS011;3106;42.670;23.318;2022-09-09T04:43:24;33.37;;;16.87;;
6149;SDS011;3106;42.670;23.318;2022-09-09T04:45:53;31.33;;;16.27;;
6149;SDS011;3106;42.670;23.318;2022-09-09T04:48:20;18.23;;;14.70;;
6149;SDS011;3106;42.670;23.318;2022-09-09T04:50:54;22.80;;;15.93;;
6149;SDS011;3106;42.670;23.318;2022-09-09T04:53:22;26.50;;;15.00;;
6149;SDS011;3106;42.670;23.318;2022-09-09T04:55:50;25.53;;;14.87;;
6149;SDS011;3106;42.670;23.318;2022-09-09T04:58:17;26.30;;;16.10;;
6149;SDS011;3106;42.670;23.318;2022-09-09T05:00:46;30.90;;;17.10;;
6149;SDS011;3106;42.670;23.318;2022-09-09T05:03:15;24.37;;;16.10;;
6149;SDS011;3106;42.670;23.318;2022-09-09T05:05:41;26.63;;;15.30;;
6149;SDS011;3106;42.670;23.318;2022-09-09T05:08:09;20.33;;;14.60;;
6149;SDS011;3106;42.670;23.318;2022-09-09T05:10:37;23.50;;;14.97;;
6149;SDS011;3106;42.670;23.318;2022-09-09T05:13:07;22.90;;;15.43;;
6149;SDS011;3106;42.670;23.318;2022-09-09T05:15:33;22.10;;;13.30;;
6149;SDS011;3106;42.670;23.318;2022-09-09T05:18:01;27.00;;;15.70;;
6149;SDS011;3106;42.670;23.318;2022-09-09T05:20:30;17.40;;;14.17;;
6149;SDS011;3106;42.670;23.318;2022-09-09T05:22:58;27.00;;;15.83;;
6149;SDS011;3106;42.670;23.318;2022-09-09T05:25:25;26.13;;;14.73;;
6149;SDS011;3106;42.670;23.318;2022-09-09T05:27:52;29.60;;;14.57;;
6149;SDS011;3106;42.670;23.318;2022-09-09T05:30:20;17.63;;;13.93;;
6149;SDS011;3106;42.670;23.318;2022-09-09T05:32:47;20.10;;;13.83;;
6149;SDS011;3106;42.670;23.318;2022-09-09T05:35:15;17.90;;;14.00;;
6149;SDS011;3106;42.670;23.318;2022-09-09T05:37:45;19.13;;;12.47;;
6149;SDS011;3106;42.670;23.318;2022-09-09T05:40:13;22.47;;;14.07;;
6149;SDS011;3106;42.670;23.318;2022-09-09T05:42:40;18.00;;;12.57;;
6149;SDS011;3106;42.670;23.318;2022-09-09T05:45:07;19.57;;;13.30;;
6149;SDS011;3106;42.670;23.318;2022-09-09T05:47:35;31.93;;;13.93;;
6149;SDS011;3106;42.670;23.318;2022-09-09T05:50:03;19.83;;;14.17;;
6149;SDS011;3106;42.670;23.318;2022-09-09T05:52:31;22.37;;;13.50;;
6149;SDS011;3106;42.670;23.318;2022-09-09T05:54:59;27.90;;;13.10;;
6149;SDS011;3106;42.670;23.318;2022-09-09T05:57:26;20.87;;;12.63;;
6149;SDS011;3106;42.670;23.318;2022-09-09T05:59:53;22.80;;;13.93;;
6149;SDS011;3106;42.670;23.318;2022-09-09T06:02:23;21.80;;;14.20;;
6149;SDS011;3106;42.670;23.318;2022-09-09T06:04:49;29.17;;;13.60;;
6149;SDS011;3106;42.670;23.318;2022-09-09T06:07:16;19.23;;;13.10;;
6149;SDS011;3106;42.670;23.318;2022-09-09T06:09:44;23.30;;;13.87;;
6149;SDS011;3106;42.670;23.318;2022-09-09T06:12:12;26.70;;;13.80;;
6149;SDS011;3106;42.670;23.318;2022-09-09T06:14:39;19.23;;;13.70;;
6149;SDS011;3106;42.670;23.318;2022-09-09T06:17:06;22.63;;;14.03;;
6149;SDS011;3106;42.670;23.318;2022-09-09T06:19:34;18.37;;;12.60;;
6149;SDS011;3106;42.670;23.318;2022-09-09T06:22:01;16.97;;;12.87;;
6149;SDS011;3106;42.670;23.318;2022-09-09T06:24:27;24.70;;;14.13;;
6149;SDS011;3106;42.670;23.318;2022-09-09T06:26:55;17.00;;;13.27;;
6149;SDS011;3106;42.670;23.318;2022-09-09T06:29:24;21.17;;;12.90;;
6149;SDS011;3106;42.670;23.318;2022-09-09T06:31:52;18.07;;;12.30;;
6149;SDS011;3106;42.670;23.318;2022-09-09T06:34:21;27.73;;;13.43;;
6149;SDS011;3106;42.670;23.318;2022-09-09T06:36:48;19.63;;;12.77;;
6149;SDS011;3106;42.670;23.318;2022-09-09T06:39:17;28.53;;;15.43;;
6149;SDS011;3106;42.670;23.318;2022-09-09T06:41:44;22.30;;;15.37;;
6149;SDS011;3106;42.670;23.318;2022-09-09T06:44:12;13.40;;;10.50;;
6149;SDS011;3106;42.670;23.318;2022-09-09T06:46:46;14.27;;;10.53;;
6149;SDS011;3106;42.670;23.318;2022-09-09T06:49:13;20.47;;;12.10;;
6149;SDS011;3106;42.670;23.318;2022-09-09T06:51:41;18.57;;;11.30;;
6149;SDS011;3106;42.670;23.318;2022-09-09T06:54:09;15.20;;;10.77;;
6149;SDS011;3106;42.670;23.318;2022-09-09T06:56:38;14.67;;;11.50;;
6149;SDS011;3106;42.670;23.318;2022-09-09T06:59:08;56.53;;;12.00;;
6149;SDS011;3106;42.670;23.318;2022-09-09T07:01:37;20.57;;;11.83;;
6149;SDS011;3106;42.670;23.318;2022-09-09T07:04:18;30.33;;;12.40;;
6149;SDS011;3106;42.670;23.318;2022-09-09T07:06:45;24.50;;;12.93;;
6149;SDS011;3106;42.670;23.318;2022-09-09T07:09:13;18.93;;;12.60;;
6149;SDS011;3106;42.670;23.318;2022-09-09T07:11:42;23.67;;;12.03;;
6149;SDS011;3106;42.670;23.318;2022-09-09T07:14:10;19.07;;;12.80;;
6149;SDS011;3106;42.670;23.318;2022-09-09T07:16:42;17.20;;;13.37;;
6149;SDS011;3106;42.670;23.318;2022-09-09T07:19:09;22.97;;;12.23;;
6149;SDS011;3106;42.670;23.318;2022-09-09T07:21:38;16.10;;;11.60;;
6149;SDS011;3106;42.670;23.318;2022-09-09T07:24:05;25.47;;;13.17;;
6149;SDS011;3106;42.670;23.318;2022-09-09T07:26:35;16.57;;;11.90;;
6149;SDS011;3106;42.670;23.318;2022-09-09T07:29:02;21.40;;;12.17;;
6149;SDS011;3106;42.670;23.318;2022-09-09T07:31:31;29.80;;;11.43;;
6149;SDS011;3106;42.670;23.318;2022-09-09T07:33:59;15.33;;;11.20;;
6149;SDS011;3106;42.670;23.318;2022-09-09T07:36:27;17.47;;;10.57;;
6149;SDS011;3106;42.670;23.318;2022-09-09T07:38:57;15.57;;;10.67;;
6149;SDS011;3106;42.670;23.318;2022-09-09T07:41:25;13.03;;;9.83;;
6149;SDS011;3106;42.670;23.318;2022-09-09T07:43:55;14.83;;;10.47;;
6149;SDS011;3106;42.670;23.318;2022-09-09T07:46:24;16.67;;;11.30;;
6149;SDS011;3106;42.670;23.318;2022-09-09T07:48:52;16.60;;;9.80;;
6149;SDS011;3106;42.670;23.318;2022-09-09T07:51:22;15.00;;;8.60;;
6149;SDS011;3106;42.670;23.318;2022-09-09T07:53:51;16.83;;;10.07;;
6149;SDS011;3106;42.670;23.318;2022-09-09T07:56:21;10.63;;;8.73;;
6149;SDS011;3106;42.670;23.318;2022-09-09T07:58:49;14.47;;;9.87;;
6149;SDS011;3106;42.670;23.318;2022-09-09T08:01:18;13.57;;;8.53;;
6149;SDS011;3106;42.670;23.318;2022-09-09T08:03:51;12.97;;;8.10;;
6149;SDS011;3106;42.670;23.318;2022-09-09T08:06:20;25.00;;;8.70;;
6149;SDS011;3106;42.670;23.318;2022-09-09T08:08:50;22.93;;;9.73;;
6149;SDS011;3106;42.670;23.318;2022-09-09T08:11:18;20.23;;;8.33;;
6149;SDS011;3106;42.670;23.318;2022-09-09T08:13:46;10.00;;;7.80;;
6149;SDS011;3106;42.670;23.318;2022-09-09T08:16:14;19.70;;;7.83;;
6149;SDS011;3106;42.670;23.318;2022-09-09T08:18:47;22.70;;;8.93;;
6149;SDS011;3106;42.670;23.318;2022-09-09T08:21:16;22.47;;;7.93;;
6149;SDS011;3106;42.670;23.318;2022-09-09T08:23:45;18.70;;;7.37;;
6149;SDS011;3106;42.670;23.318;2022-09-09T08:26:14;13.70;;;8.10;;
6149;SDS011;3106;42.670;23.318;2022-09-09T08:28:44;12.03;;;7.10;;
6149;SDS011;3106;42.670;23.318;2022-09-09T08:31:13;9.37;;;8.07;;
6149;SDS011;3106;42.670;23.318;2022-09-09T08:33:41;9.60;;;7.33;;
6149;SDS011;3106;42.670;23.318;2022-09-09T08:36:11;12.10;;;7.77;;
6149;SDS011;3106;42.670;23.318;2022-09-09T08:38:40;13.17;;;7.33;;
6149;SDS011;3106;42.670;23.318;2022-09-09T08:41:22;11.70;;;7.13;;
6149;SDS011;3106;42.670;23.318;2022-09-09T08:44:01;11.00;;;6.90;;
6149;SDS011;3106;42.670;23.318;2022-09-09T08:46:35;9.70;;;6.97;;
6149;SDS011;3106;42.670;23.318;2022-09-09T08:49:14;10.63;;;7.70;;
6149;SDS011;3106;42.670;23.318;2022-09-09T08:51:58;12.90;;;7.20;;
6149;SDS011;3106;42.670;23.318;2022-09-09T08:54:33;11.00;;;7.33;;
6149;SDS011;3106;42.670;23.318;2022-09-09T08:57:02;10.93;;;6.40;;
6149;SDS011;3106;42.670;23.318;2022-09-09T08:59:31;15.30;;;9.43;;
6149;SDS011;3106;42.670;23.318;2022-09-09T09:02:14;10.23;;;7.40;;
6149;SDS011;3106;42.670;23.318;2022-09-09T09:04:51;11.83;;;6.90;;
6149;SDS011;3106;42.670;23.318;2022-09-09T09:07:28;14.70;;;7.30;;
6149;SDS011;3106;42.670;23.318;2022-09-09T09:10:02;15.37;;;7.03;;
6149;SDS011;3106;42.670;23.318;2022-09-09T09:12:38;15.17;;;7.27;;
6149;SDS011;3106;42.670;23.318;2022-09-09T09:15:10;14.03;;;7.07;;
6149;SDS011;3106;42.670;23.318;2022-09-09T09:17:45;19.40;;;7.03;;
6149;SDS011;3106;42.670;23.318;2022-09-09T09:20:12;15.87;;;8.10;;
6149;SDS011;3106;42.670;23.318;2022-09-09T09:22:44;18.60;;;7.47;;
6149;SDS011;3106;42.670;23.318;2022-09-09T09:25:15;12.63;;;7.47;;
6149;SDS011;3106;42.670;23.318;2022-09-09T09:27:47;13.50;;;7.47;;
6149;SDS011;3106;42.670;23.318;2022-09-09T09:30:20;11.67;;;7.80;;
6149;SDS011;3106;42.670;23.318;2022-09-09T09:32:52;13.73;;;7.23;;
6149;SDS011;3106;42.670;23.318;2022-09-09T09:35:22;9.03;;;7.87;;
6149;SDS011;3106;42.670;23.318;2022-09-09T09:37:49;14.70;;;7.97;;
6149;SDS011;3106;42.670;23.318;2022-09-09T09:40:17;7.80;;;6.80;;
6149;SDS011;3106;42.670;23.318;2022-09-09T09:42:49;9.40;;;7.70;;
6149;SDS011;3106;42.670;23.318;2022-09-09T09:45:23;9.73;;;8.07;;
6149;SDS011;3106;42.670;23.318;2022-09-09T09:48:02;15.50;;;7.77;;
6149;SDS011;3106;42.670;23.318;2022-09-09T09:50:31;14.37;;;7.77;;
6149;SDS011;3106;42.670;23.318;2022-09-09T09:53:03;13.60;;;8.10;;
6149;SDS011;3106;42.670;23.318;2022-09-09T09:55:31;8.57;;;7.53;;
6149;SDS011;3106;42.670;23.318;2022-09-09T09:58:02;9.43;;;8.17;;
6149;SDS011;3106;42.670;23.318;2022-09-09T10:00:31;11.63;;;7.30;;
6149;SDS011;3106;42.670;23.318;2022-09-09T10:02:59;10.17;;;8.00;;
6149;SDS011;3106;42.670;23.318;2022-09-09T10:05:45;16.80;;;8.50;;
6149;SDS011;3106;42.670;23.318;2022-09-09T10:08:13;10.10;;;7.30;;
6149;SDS011;3106;42.670;23.318;2022-09-09T10:10:46;10.33;;;7.50;;
6149;SDS011;3106;42.670;23.318;2022-09-09T10:13:24;24.63;;;8.33;;
6149;SDS011;3106;42.670;23.318;2022-09-09T10:16:08;21.07;;;8.63;;
6149;SDS011;3106;42.670;23.318;2022-09-09T10:18:58;16.00;;;7.90;;
6149;SDS011;3106;42.670;23.318;2022-09-09T10:21:54;17.23;;;8.43;;
6149;SDS011;3106;42.670;23.318;2022-09-09T10:24:46;15.53;;;6.80;;
6149;SDS011;3106;42.670;23.318;2022-09-09T10:27:32;25.00;;;8.90;;
6149;SDS011;3106;42.670;23.318;2022-09-09T10:30:12;18.77;;;7.77;;
6149;SDS011;3106;42.670;23.318;2022-09-09T10:32:48;17.73;;;8.17;;
6149;SDS011;3106;42.670;23.318;2022-09-09T10:35:27;13.70;;;7.97;;
6149;SDS011;3106;42.670;23.318;2022-09-09T10:38:12;13.50;;;7.67;;
6149;SDS011;3106;42.670;23.318;2022-09-09T10:40:59;11.47;;;8.00;;
6149;SDS011;3106;42.670;23.318;2022-09-09T10:43:39;8.50;;;7.37;;
6149;SDS011;3106;42.670;23.318;2022-09-09T10:46:36;12.20;;;7.70;;
6149;SDS011;3106;42.670;23.318;2022-09-09T10:49:13;13.47;;;8.10;;
6149;SDS011;3106;42.670;23.318;2022-09-09T10:52:03;13.00;;;9.20;;
6149;SDS011;3106;42.670;23.318;2022-09-09T10:54:42;19.67;;;8.90;;
6149;SDS011;3106;42.670;23.318;2022-09-09T10:57:24;12.83;;;8.80;;
6149;SDS011;3106;42.670;23.318;2022-09-09T10:59:58;14.77;;;7.73;;
6149;SDS011;3106;42.670;23.318;2022-09-09T11:02:30;14.33;;;9.13;;
6149;SDS011;3106;42.670;23.318;2022-09-09T11:05:00;15.23;;;9.70;;
6149;SDS011;3106;42.670;23.318;2022-09-09T11:07:35;12.90;;;9.50;;
6149;SDS011;3106;42.670;23.318;2022-09-09T11:10:14;15.43;;;10.10;;
6149;SDS011;3106;42.670;23.318;2022-09-09T11:12:48;20.40;;;10.47;;
6149;SDS011;3106;42.670;23.318;2022-09-09T11:15:20;24.73;;;10.67;;
6149;SDS011;3106;42.670;23.318;2022-09-09T11:17:52;36.07;;;11.27;;
6149;SDS011;3106;42.670;23.318;2022-09-09T11:20:22;16.77;;;10.20;;
6149;SDS011;3106;42.670;23.318;2022-09-09T11:22:52;19.17;;;10.87;;
6149;SDS011;3106;42.670;23.318;2022-09-09T11:25:28;16.37;;;11.03;;
6149;SDS011;3106;42.670;23.318;2022-09-09T11:28:12;15.60;;;9.93;;
6149;SDS011;3106;42.670;23.318;2022-09-09T11:31:00;16.70;;;10.47;;
6149;SDS011;3106;42.670;23.318;2022-09-09T11:37:15;30.13;;;12.00;;
6149;SDS011;3106;42.670;23.318;2022-09-09T11:40:06;26.37;;;12.63;;
6149;SDS011;3106;42.670;23.318;2022-09-09T11:42:46;16.87;;;10.73;;
6149;SDS011;3106;42.670;23.318;2022-09-09T11:45:22;23.73;;;11.50;;
6149;SDS011;3106;42.670;23.318;2022-09-09T11:47:54;19.00;;;10.03;;
6149;SDS011;3106;42.670;23.318;2022-09-09T11:50:32;18.10;;;10.03;;
6149;SDS011;3106;42.670;23.318;2022-09-09T11:58:59;22.10;;;10.13;;
6149;SDS011;3106;42.670;23.318;2022-09-09T12:01:35;21.87;;;10.67;;
6149;SDS011;3106;42.670;23.318;2022-09-09T12:07:02;19.23;;;11.87;;
6149;SDS011;3106;42.670;23.318;2022-09-09T12:09:33;31.03;;;9.80;;
6149;SDS011;3106;42.670;23.318;2022-09-09T12:12:26;18.23;;;9.90;;
6149;SDS011;3106;42.670;23.318;2022-09-09T12:14:56;20.77;;;9.43;;
6149;SDS011;3106;42.670;23.318;2022-09-09T12:17:30;19.33;;;9.57;;
6149;SDS011;3106;42.670;23.318;2022-09-09T12:20:09;18.80;;;10.00;;
6149;SDS011;3106;42.670;23.318;2022-09-09T12:22:46;19.13;;;10.20;;
6149;SDS011;3106;42.670;23.318;2022-09-09T12:25:32;22.00;;;10.37;;
6149;SDS011;3106;42.670;23.318;2022-09-09T12:28:11;19.03;;;10.87;;
6149;SDS011;3106;42.670;23.318;2022-09-09T12:30:45;22.87;;;9.63;;
6149;SDS011;3106;42.670;23.318;2022-09-09T12:33:18;21.07;;;9.73;;
6149;SDS011;3106;42.670;23.318;2022-09-09T12:35:48;26.37;;;9.93;;
6149;SDS011;3106;42.670;23.318;2022-09-09T12:38:25;24.93;;;10.57;;
6149;SDS011;3106;42.670;23.318;2022-09-09T12:40:57;32.53;;;10.20;;
6149;SDS011;3106;42.670;23.318;2022-09-09T12:43:27;25.47;;;10.03;;
6149;SDS011;3106;42.670;23.318;2022-09-09T12:45:55;19.83;;;10.03;;
6149;SDS011;3106;42.670;23.318;2022-09-09T12:48:27;17.73;;;10.83;;
6149;SDS011;3106;42.670;23.318;2022-09-09T12:51:01;31.43;;;10.30;;
6149;SDS011;3106;42.670;23.318;2022-09-09T12:53:32;21.90;;;10.60;;
6149;SDS011;3106;42.670;23.318;2022-09-09T12:56:04;73.20;;;13.60;;
6149;SDS011;3106;42.670;23.318;2022-09-09T12:58:37;41.13;;;12.07;;
6149;SDS011;3106;42.670;23.318;2022-09-09T13:01:05;15.60;;;9.50;;
6149;SDS011;3106;42.670;23.318;2022-09-09T13:03:44;30.03;;;9.93;;
6149;SDS011;3106;42.670;23.318;2022-09-09T13:06:13;28.63;;;10.30;;
6149;SDS011;3106;42.670;23.318;2022-09-09T13:08:46;23.83;;;9.80;;
6149;SDS011;3106;42.670;23.318;2022-09-09T13:11:14;15.87;;;9.90;;
6149;SDS011;3106;42.670;23.318;2022-09-09T13:13:51;37.20;;;10.17;;
6149;SDS011;3106;42.670;23.318;2022-09-09T13:16:21;72.80;;;12.60;;
6149;SDS011;3106;42.670;23.318;2022-09-09T13:18:52;16.40;;;9.53;;
6149;SDS011;3106;42.670;23.318;2022-09-09T13:21:30;17.87;;;9.43;;
6149;SDS011;3106;42.670;23.318;2022-09-09T13:23:59;24.00;;;9.13;;
6149;SDS011;3106;42.670;23.318;2022-09-09T13:26:28;21.93;;;7.67;;
6149;SDS011;3106;42.670;23.318;2022-09-09T13:29:07;17.83;;;8.73;;
6149;SDS011;3106;42.670;23.318;2022-09-09T13:31:43;23.90;;;11.40;;
6149;SDS011;3106;42.670;23.318;2022-09-09T13:34:11;30.00;;;10.67;;
6149;SDS011;3106;42.670;23.318;2022-09-09T13:36:40;18.60;;;9.10;;
6149;SDS011;3106;42.670;23.318;2022-09-09T13:39:13;31.67;;;8.93;;
6149;SDS011;3106;42.670;23.318;2022-09-09T13:41:51;14.10;;;9.30;;
6149;SDS011;3106;42.670;23.318;2022-09-09T13:44:21;11.83;;;8.67;;
6149;SDS011;3106;42.670;23.318;2022-09-09T13:49:44;16.40;;;9.03;;
6149;SDS011;3106;42.670;23.318;2022-09-09T13:52:12;27.57;;;10.37;;
6149;SDS011;3106;42.670;23.318;2022-09-09T13:54:41;20.17;;;8.53;;
6149;SDS011;3106;42.670;23.318;2022-09-09T13:57:14;22.57;;;10.97;;
6149;SDS011;3106;42.670;23.318;2022-09-09T13:59:44;15.13;;;10.00;;
6149;SDS011;3106;42.670;23.318;2022-09-09T14:02:11;13.57;;;10.00;;
6149;SDS011;3106;42.670;23.318;2022-09-09T14:04:38;19.53;;;9.90;;
6149;SDS011;3106;42.670;23.318;2022-09-09T14:07:07;19.83;;;9.97;;
6149;SDS011;3106;42.670;23.318;2022-09-09T14:09:37;15.30;;;9.03;;
6149;SDS011;3106;42.670;23.318;2022-09-09T14:12:04;15.90;;;9.37;;
6149;SDS011;3106;42.670;23.318;2022-09-09T14:14:31;23.20;;;9.30;;
6149;SDS011;3106;42.670;23.318;2022-09-09T14:17:00;23.20;;;11.03;;
6149;SDS011;3106;42.670;23.318;2022-09-09T14:19:26;16.73;;;11.13;;
6149;SDS011;3106;42.670;23.318;2022-09-09T14:21:53;20.47;;;11.00;;
6149;SDS011;3106;42.670;23.318;2022-09-09T14:24:20;25.43;;;10.27;;
6149;SDS011;3106;42.670;23.318;2022-09-09T14:26:50;19.27;;;10.40;;
6149;SDS011;3106;42.670;23.318;2022-09-09T14:29:20;22.63;;;10.73;;
6149;SDS011;3106;42.670;23.318;2022-09-09T14:31:46;22.13;;;11.80;;
6149;SDS011;3106;42.670;23.318;2022-09-09T14:34:15;20.23;;;10.07;;
6149;SDS011;3106;42.670;23.318;2022-09-09T14:36:42;16.43;;;9.43;;
6149;SDS011;3106;42.670;23.318;2022-09-09T14:39:09;20.80;;;11.00;;
6149;SDS011;3106;42.670;23.318;2022-09-09T14:41:36;20.63;;;9.90;;
6149;SDS011;3106;42.670;23.318;2022-09-09T14:44:03;22.17;;;9.87;;
6149;SDS011;3106;42.670;23.318;2022-09-09T14:46:30;26.50;;;10.53;;
6149;SDS011;3106;42.670;23.318;2022-09-09T14:48:58;22.83;;;12.00;;
6149;SDS011;3106;42.670;23.318;2022-09-09T14:51:26;23.83;;;9.90;;
6149;SDS011;3106;42.670;23.318;2022-09-09T14:53:54;21.23;;;8.83;;
6149;SDS011;3106;42.670;23.318;2022-09-09T14:56:24;23.97;;;10.33;;
6149;SDS011;3106;42.670;23.318;2022-09-09T14:58:52;17.63;;;10.30;;
6149;SDS011;3106;42.670;23.318;2022-09-09T15:01:21;23.07;;;9.90;;
6149;SDS011;3106;42.670;23.318;2022-09-09T15:03:50;21.30;;;9.80;;
6149;SDS011;3106;42.670;23.318;2022-09-09T15:06:17;20.40;;;9.60;;
6149;SDS011;3106;42.670;23.318;2022-09-09T15:08:47;18.67;;;9.63;;
6149;SDS011;3106;42.670;23.318;2022-09-09T15:11:16;16.73;;;9.63;;
6149;SDS011;3106;42.670;23.318;2022-09-09T15:13:43;16.40;;;9.30;;
6149;SDS011;3106;42.670;23.318;2022-09-09T15:16:11;48.07;;;10.13;;
6149;SDS011;3106;42.670;23.318;2022-09-09T15:18:39;13.53;;;9.23;;